Weather History for Warroad, MN

Change the Weather History Date:

Wednesday, May 13, 2009

  Actual Average Record
Temperature  
Mean Temperature 50 °F -  
Max Temperature 60 °F 62 °F 87 °F (1977)
Min Temperature 41 °F 39 °F 24 °F (1988)
Degree Days  
Heating Degree Days 14    
Moisture  
Dew Point 48 °F    
Average Humidity 83    
Maximum Humidity 94    
Minimum Humidity 63    
Precipitation  
Precipitation 0.36 in - - ()
Sea Level Pressure  
Sea Level Pressure 29.30 in    
Wind  
Wind Speed 19 mph (SW)    
Max Wind Speed 33 mph    
Max Gust Speed 48 mph    
Visibility 9 miles    
Events Rain    
Averages and records for this station are not official NWS values.
T = Trace of Precipitation, MM = Missing Value Source: NWS Daily Summary

Daily Weather History Graph

Daily Weather History Graph

Search for Another Location

Airport:

Trip Planner

Search our weather history database for the weather conditions in past years. The results will help you decide how hot, cold, wet, or windy it might be!

Date:

Astronomy

May. 13, 2009 Rise Set
Actual Time 5:41 AM CDT 8:54 PM CDT
Civil Twilight 5:03 AM CDT 9:32 PM CDT
Nautical Twilight 4:14 AM CDT 10:22 PM CDT
Astronomical Twilight 3:11 AM CDT 11:26 PM CDT
Moon 12:45 AM CDT (5/13) 8:41 AM CDT (5/13)
Length of Visible Light 16h 28m
Length of Day
15h 12m
Waning Gibbous, 82% of the Moon is Illuminated
May 13
Waning Gibbous
May 17
Last Quarter
May 24
New
May 30
First Quarter
Jun 7
Full

Hourly Weather History & Observations

Time (CDT) Temp. Windchill Dew Point Humidity Pressure Visibility Wind Dir Wind Speed Gust Speed Precip Events Conditions
12:14 AM 53.6 °F - 48.2 °F 82% 29.41 in 10.0 mi SE 17.3 mph 21.9 mph N/A Rain Light Rain
12:34 AM 53.6 °F - 48.2 °F 82% 29.39 in 10.0 mi SE 13.8 mph - N/A   Overcast
12:54 AM 53.6 °F - 48.2 °F 82% 29.38 in 10.0 mi SE 13.8 mph - N/A   Overcast
1:14 AM 53.6 °F - 51.8 °F 94% 29.36 in 10.0 mi SSE 19.6 mph 24.2 mph N/A   Overcast
1:34 AM 55.4 °F - 51.8 °F 88% 29.34 in 10.0 mi SSE 16.1 mph - N/A   Overcast
1:54 AM 55.4 °F - 51.8 °F 88% 29.33 in 10.0 mi SSE 15.0 mph 21.9 mph N/A   Overcast
2:14 AM 57.2 °F - 53.6 °F 88% 29.31 in 10.0 mi South 13.8 mph 23.0 mph N/A   Overcast
2:34 AM 57.2 °F - 53.6 °F 88% 29.30 in 10.0 mi South 18.4 mph 24.2 mph N/A   Overcast
2:54 AM 57.2 °F - 53.6 °F 88% 29.27 in 10.0 mi SSE 19.6 mph 27.6 mph N/A   Overcast
3:14 AM 57.2 °F - 53.6 °F 88% 29.26 in 10.0 mi SSE 21.9 mph 26.5 mph N/A   Overcast
3:34 AM 57.2 °F - 53.6 °F 88% 29.24 in 10.0 mi SSE 19.6 mph 28.8 mph N/A   Overcast
3:54 AM 57.2 °F - 53.6 °F 88% 29.24 in 7.0 mi SSE 19.6 mph 27.6 mph N/A Rain Rain
4:14 AM 55.4 °F - 51.8 °F 88% 29.22 in 10.0 mi SSE 15.0 mph 25.3 mph N/A   Overcast
4:34 AM 55.4 °F - 51.8 °F 88% 29.21 in 10.0 mi SSE 16.1 mph 20.7 mph N/A   Overcast
4:54 AM 55.4 °F - 51.8 °F 88% 29.20 in 7.0 mi South 16.1 mph 25.3 mph 0.02 in Rain Rain
5:14 AM 55.4 °F - 51.8 °F 88% 29.19 in 10.0 mi South 11.5 mph - 0.05 in Rain Light Rain
5:35 AM 55.4 °F - 51.8 °F 88% 29.19 in 7.0 mi SSW 17.3 mph 32.2 mph 0.16 in Rain Rain
5:54 AM 55.4 °F - 51.8 °F 88% 29.19 in 10.0 mi SSW 13.8 mph 26.5 mph 0.17 in   Mostly Cloudy
6:34 AM 53.6 °F - 48.2 °F 82% 29.19 in 10.0 mi SSW 16.1 mph 23.0 mph N/A   Overcast
6:54 AM 53.6 °F - 48.2 °F 82% 29.20 in 10.0 mi SSW 17.3 mph 25.3 mph N/A   Mostly Cloudy
7:14 AM 53.6 °F - 48.2 °F 82% 29.20 in 10.0 mi SSW 16.1 mph 24.2 mph N/A   Mostly Cloudy
7:34 AM 51.8 °F - 48.2 °F 88% 29.20 in 10.0 mi SSW 16.1 mph 29.9 mph N/A   Overcast
7:54 AM 51.8 °F - 46.4 °F 82% 29.21 in 10.0 mi SW 20.7 mph 33.4 mph N/A   Overcast
8:14 AM 51.8 °F - 46.4 °F 82% 29.22 in 10.0 mi SW 24.2 mph 35.7 mph N/A   Overcast
8:35 AM 50.0 °F - 46.4 °F 87% 29.22 in 3.0 mi SW 21.9 mph 33.4 mph N/A Rain Light Rain
8:54 AM 51.8 °F - 46.4 °F 82% 29.22 in 4.0 mi SW 26.5 mph 33.4 mph N/A Rain Light Rain
9:14 AM 51.8 °F - 46.4 °F 82% 29.22 in 5.0 mi SSW 23.0 mph 31.1 mph N/A   Mostly Cloudy
9:34 AM 51.8 °F - 48.2 °F 88% 29.22 in 7.0 mi SSW 26.5 mph 36.8 mph N/A   Mostly Cloudy
9:54 AM 51.8 °F - 48.2 °F 88% 29.23 in 10.0 mi SW 25.3 mph 34.5 mph N/A   Mostly Cloudy
10:14 AM 53.6 °F - 48.2 °F 82% 29.23 in 10.0 mi SW 24.2 mph 35.7 mph N/A   Mostly Cloudy
10:34 AM 55.4 °F - 50.0 °F 82% 29.23 in 10.0 mi SW 24.2 mph 36.8 mph N/A   Mostly Cloudy
10:54 AM 57.2 °F - 48.2 °F 72% 29.23 in 10.0 mi SW 24.2 mph 34.5 mph N/A   Mostly Cloudy
11:14 AM 57.2 °F - 48.2 °F 72% 29.23 in 10.0 mi SW 21.9 mph 38.0 mph N/A   Scattered Clouds
11:35 AM 57.2 °F - 48.2 °F 72% 29.24 in 10.0 mi SW 23.0 mph 39.1 mph N/A   Clear
11:54 AM 59.0 °F - 48.2 °F 67% 29.25 in 10.0 mi SSW 28.8 mph 41.4 mph N/A   Scattered Clouds
12:14 PM 60.8 °F - 48.2 °F 63% 29.25 in 10.0 mi SW 21.9 mph 36.8 mph N/A   Scattered Clouds
12:34 PM 60.8 °F - 48.2 °F 63% 29.27 in 10.0 mi SW 33.4 mph 48.3 mph N/A   Scattered Clouds
12:54 PM 60.8 °F - 48.2 °F 63% 29.27 in 10.0 mi SW 26.5 mph 40.3 mph N/A   Scattered Clouds
1:14 PM 60.8 °F - 48.2 °F 63% 29.28 in 10.0 mi West 32.2 mph 39.1 mph N/A   Scattered Clouds
1:34 PM 60.8 °F - 48.2 °F 63% 29.30 in 10.0 mi West 27.6 mph 41.4 mph N/A   Mostly Cloudy
1:54 PM 57.2 °F - 48.2 °F 72% 29.31 in 10.0 mi West 25.3 mph 34.5 mph N/A   Mostly Cloudy
2:14 PM 57.2 °F - 50.0 °F 77% 29.31 in 10.0 mi West 20.7 mph 28.8 mph N/A   Mostly Cloudy
2:35 PM 53.6 °F - 50.0 °F 88% 29.33 in 10.0 mi West 17.3 mph 27.6 mph N/A Rain Light Rain
2:54 PM 53.6 °F - 48.2 °F 82% 29.34 in 7.0 mi West 16.1 mph 25.3 mph 0.01 in Rain Rain
3:14 PM 53.6 °F - 50.0 °F 88% 29.36 in 7.0 mi West 21.9 mph 31.1 mph N/A Rain Light Rain
3:34 PM 51.8 °F - 48.2 °F 88% 29.37 in 4.0 mi West 19.6 mph 28.8 mph 0.04 in Rain Heavy Rain
3:54 PM 51.8 °F - 48.2 °F 88% 29.38 in 5.0 mi West 19.6 mph 26.5 mph 0.08 in Rain Rain
4:14 PM 51.8 °F - 48.2 °F 88% 29.39 in 5.0 mi West 21.9 mph 32.2 mph N/A Rain Light Rain
4:34 PM 51.8 °F - 48.2 °F 88% 29.39 in 10.0 mi West 19.6 mph 27.6 mph 0.01 in Rain Light Rain
4:54 PM 51.8 °F - 48.2 °F 88% 29.40 in 7.0 mi West 16.1 mph 23.0 mph 0.01 in Rain Light Rain
5:14 PM 50.0 °F - 46.4 °F 87% 29.40 in 7.0 mi West 16.1 mph 27.6 mph N/A   Drizzle
5:35 PM 46.4 °F 39.5 °F 42.8 °F 87% 29.43 in 10.0 mi West 17.3 mph 25.3 mph 0.01 in Rain Light Rain
5:54 PM 44.6 °F 36.9 °F 41.0 °F 87% 29.45 in 10.0 mi West 18.4 mph 24.2 mph 0.03 in Rain Light Rain
6:14 PM 42.8 °F 35.1 °F 39.2 °F 87% 29.47 in 7.0 mi West 16.1 mph 21.9 mph 0.01 in Rain Light Rain
6:34 PM 41.0 °F 33.5 °F 37.4 °F 87% 29.48 in 7.0 mi WNW 13.8 mph 27.6 mph 0.02 in   Drizzle
6:54 PM 41.0 °F 34.7 °F 37.4 °F 87% 29.48 in 10.0 mi West 10.4 mph - 0.04 in Rain Light Rain
6:59 PM 41.0 °F 33.1 °F 37.4 °F 87% 29.49 in 10.0 mi West 15.0 mph 19.6 mph N/A Rain Rain
7:34 PM 39.2 °F 30.5 °F 35.6 °F 87% 29.51 in 7.0 mi WNW 16.1 mph 25.3 mph 0.05 in Rain Rain
7:54 PM 37.4 °F 28.2 °F 33.8 °F 87% 29.53 in 7.0 mi WNW 16.1 mph 23.0 mph 0.08 in Rain Rain
8:14 PM 35.6 °F 26.6 °F 33.8 °F 93% 29.54 in 7.0 mi West 13.8 mph - 0.02 in Rain Rain
8:34 PM 35.6 °F 27.1 °F 32.0 °F 87% 29.55 in 7.0 mi West 12.7 mph 16.1 mph 0.03 in Rain Light Rain
8:54 PM 35.6 °F 27.5 °F 32.0 °F 87% 29.56 in 7.0 mi WNW 11.5 mph - 0.03 in   Light Drizzle
9:14 PM 35.6 °F 24.2 °F 32.0 °F 87% 29.57 in 10.0 mi WNW 21.9 mph 31.1 mph 0.01 in   Overcast
9:34 PM 35.6 °F 25.9 °F 30.2 °F 81% 29.58 in 7.0 mi NW 16.1 mph 26.5 mph 0.01 in   Overcast
9:54 PM 33.8 °F 23.2 °F 30.2 °F 87% 29.60 in 4.0 mi WNW 17.3 mph 33.4 mph 0.01 in Snow Light Snow
10:14 PM 33.8 °F 21.9 °F 28.4 °F 81% 29.61 in 3.0 mi NW 21.9 mph 29.9 mph N/A Snow Light Snow
10:34 PM 32.0 °F 19.2 °F 28.4 °F 87% 29.63 in 7.0 mi NW 23.0 mph 33.4 mph N/A   Overcast
10:54 PM 32.0 °F 21.6 °F 28.4 °F 87% 29.64 in 10.0 mi NW 15.0 mph 24.2 mph N/A   Overcast
11:14 PM 32.0 °F 18.6 °F 28.4 °F 87% 29.65 in 10.0 mi NW 25.3 mph 34.5 mph N/A   Overcast
11:34 PM 30.2 °F 16.5 °F 26.6 °F 86% 29.66 in 10.0 mi NW 24.2 mph 33.4 mph N/A   Overcast
11:54 PM 30.2 °F 17.4 °F 26.6 °F 86% 29.67 in 10.0 mi NW 20.7 mph 29.9 mph N/A   Overcast